Time;durP1;ratioP1;P1;durP2;ratioP2;P2;SDS_P1;SDS_P2;PMS_P1;PMS_P2;Temp;Humidity;BMP_temperature;BMP_pressure;BME280_temperature;BME280_humidity;BME280_pressure;Samples;Min_cycle;Max_cycle;Signal;HPM_P1;HPM_P2
2023/01/29 00:00:32;;;;;;;;;;;;;;;-0.64;61.00;101471.83;110847;1258;23585;-79
2023/01/29 00:04:01;;;;;;;37.40;27.70;;;;;;;-0.71;60.99;101472.52;111048;1257;22050;-80
2023/01/29 00:06:54;;;;;;;36.50;30.20;;;;;;;-0.74;61.11;101464.40;111055;1258;21984;-79
2023/01/29 00:10:01;;;;;;;;;;;;;;;;;;;;;
2023/01/29 00:12:48;;;;;;;45.50;34.40;;;;;;;-0.68;61.15;101459.94;110442;1262;23109;-81
2023/01/29 00:15:45;;;;;;;44.10;33.60;;;;;;;-0.65;61.15;101454.90;110119;1267;23832;-81
2023/01/29 00:18:43;;;;;;;41.50;30.10;;;;;;;-0.64;61.05;101453.55;110205;1264;21995;-81
2023/01/29 00:21:33;;;;;;;40.50;28.80;;;;;;;-0.67;60.96;101450.06;110279;1268;21999;-82
2023/01/29 00:24:21;;;;;;;37.00;28.80;;;;;;;-0.68;61.02;101439.59;110370;1267;21992;-81
2023/01/29 00:28:07;;;;;;;;;;;;;;;;;;;;;
2023/01/29 00:30:47;;;;;;;45.60;31.70;;;;;;;-0.76;61.03;101422.11;110055;1269;23033;-80
2023/01/29 00:33:45;;;;;;;34.70;27.80;;;;;;;-0.80;61.16;101413.98;109894;1268;22001;-80
2023/01/29 00:36:44;;;;;;;;;;;;;;;;;;;;;
2023/01/29 00:40:04;;;;;;;38.90;31.00;;;;;;;-0.77;61.13;101407.40;110130;1267;22095;-79
2023/01/29 00:46:53;;;;;;;30.70;25.30;;;;;;;-0.85;61.26;101404.63;110035;1268;21985;-80
2023/01/29 00:49:43;;;;;;;34.70;26.30;;;;;;;-0.82;61.50;101405.06;110026;1267;23734;-78
2023/01/29 00:52:26;;;;;;;29.60;25.40;;;;;;;-0.75;61.48;101407.27;109903;1267;21980;-80
2023/01/29 00:55:07;;;;;;;35.90;26.70;;;;;;;-0.72;61.42;101411.64;110172;1267;24300;-78
2023/01/29 00:57:48;;;;;;;31.90;26.80;;;;;;;-0.71;61.39;101413.71;109479;1272;22075;-77
2023/01/29 01:00:51;;;;;;;32.70;27.20;;;;;;;-0.73;61.46;101407.67;109609;1268;21977;-80
2023/01/29 01:04:14;;;;;;;30.30;25.00;;;;;;;-0.75;61.59;101402.31;110071;1263;22043;-79
2023/01/29 01:06:54;;;;;;;28.10;23.20;;;;;;;-0.74;61.57;101411.74;110488;1262;21874;-79
2023/01/29 01:10:23;;;;;;;29.10;24.00;;;;;;;-0.75;61.49;101415.80;110613;1262;22061;-80
2023/01/29 01:13:24;;;;;;;32.60;24.60;;;;;;;-0.77;61.60;101409.11;110240;1254;22048;-81
2023/01/29 01:16:17;;;;;;;30.60;25.50;;;;;;;-0.76;61.66;101404.02;110023;1268;22090;-80
2023/01/29 01:18:59;;;;;;;31.00;25.30;;;;;;;-0.73;61.65;101401.35;110072;1267;21986;-80
2023/01/29 01:21:46;;;;;;;31.60;24.90;;;;;;;-0.69;61.60;101397.36;110199;1265;22011;-82
2023/01/29 01:24:22;;;;;;;30.90;24.40;;;;;;;-0.65;61.72;101392.98;110457;1261;22985;-82
2023/01/29 01:27:18;;;;;;;33.00;26.00;;;;;;;-0.63;61.59;101378.00;110190;1268;21808;-81
2023/01/29 01:30:40;;;;;;;29.40;24.30;;;;;;;-0.64;61.57;101366.70;109991;1263;22723;-80
2023/01/29 01:33:57;;;;;;;28.50;22.70;;;;;;;-0.64;61.69;101360.90;110500;1263;21984;-80
2023/01/29 01:37:29;;;;;;;28.70;21.70;;;;;;;-0.66;61.83;101365.10;110693;1263;23697;-81
2023/01/29 01:40:59;;;;;;;29.10;22.40;;;;;;;-0.65;61.97;101354.38;109913;1269;21986;-81
2023/01/29 01:44:07;;;;;;;28.40;22.10;;;;;;;-0.62;61.99;101359.21;110092;1267;21990;-83
2023/01/29 01:46:43;;;;;;;29.90;22.40;;;;;;;-0.61;61.98;101363.18;109233;1275;22367;-80
2023/01/29 01:49:23;;;;;;;31.80;25.30;;;;;;;-0.60;62.03;101368.66;109278;1276;22964;-81
2023/01/29 01:52:23;;;;;;;29.40;26.30;;;;;;;-0.60;62.10;101371.23;109261;1277;23657;-80
2023/01/29 01:55:04;;;;;;;31.80;26.10;;;;;;;-0.61;62.25;101375.31;109181;1275;23119;-81
2023/01/29 01:57:42;;;;;;;41.90;34.00;;;;;;;-0.61;62.23;101373.94;109764;1263;21973;-81
2023/01/29 02:00:23;;;;;;;31.00;25.00;;;;;;;-0.62;62.09;101376.49;110433;1265;21976;-80
2023/01/29 02:09:40;;;;;;;28.60;22.80;;;;;;;-0.68;62.39;101383.69;110997;1259;22042;-81
2023/01/29 02:12:29;;;;;;;37.00;29.10;;;;;;;-0.68;62.51;101385.75;111027;1257;21975;-80
2023/01/29 02:15:47;;;;;;;31.30;25.10;;;;;;;-0.66;62.56;101382.38;111224;1257;21971;-82
2023/01/29 02:18:36;;;;;;;33.20;25.70;;;;;;;-0.63;62.66;101382.29;111075;1258;21980;-81
2023/01/29 02:21:43;;;;;;;32.00;25.20;;;;;;;-0.59;62.85;101385.10;110888;1258;22008;-82
2023/01/29 02:25:11;;;;;;;30.50;26.60;;;;;;;-0.55;62.90;101381.95;110707;1263;21963;-80
2023/01/29 02:29:06;;;;;;;;;;;;;;;;;;;;;
2023/01/29 02:32:11;;;;;;;33.40;27.40;;;;;;;-0.52;63.22;101382.70;109662;1271;23626;-81
2023/01/29 02:35:28;;;;;;;32.40;25.80;;;;;;;-0.48;63.23;101378.88;109617;1271;23040;-79
2023/01/29 02:39:18;;;;;;;34.60;26.60;;;;;;;-0.48;63.22;101371.19;109763;1264;23768;-79
2023/01/29 02:42:08;;;;;;;;;;;;;;;;;;;;;
2023/01/29 02:45:29;;;;;;;27.70;21.90;;;;;;;-0.50;63.36;101353.17;109652;1267;21978;-79
2023/01/29 02:48:13;;;;;;;28.10;21.90;;;;;;;-0.51;63.37;101359.30;109557;1273;22061;-78
2023/01/29 02:51:28;;;;;;;29.00;23.60;;;;;;;-0.46;63.61;101363.17;109431;1273;22018;-80
2023/01/29 02:54:40;;;;;;;25.70;22.40;;;;;;;-0.43;63.74;101359.17;109595;1271;22516;-80
2023/01/29 02:57:29;;;;;;;29.00;23.20;;;;;;;-0.43;63.80;101356.43;109704;1272;23811;-81
2023/01/29 03:00:18;;;;;;;26.10;21.20;;;;;;;-0.41;63.85;101362.46;109257;1273;22001;-79
2023/01/29 03:03:17;;;;;;;28.50;21.10;;;;;;;-0.39;63.85;101367.98;109373;1274;23796;-79
2023/01/29 03:06:20;;;;;;;27.30;22.50;;;;;;;-0.38;63.93;101364.23;109254;1273;22081;-79
2023/01/29 03:12:32;;;;;;;26.50;20.80;;;;;;;-0.48;64.16;101359.73;109936;1270;23780;-82
2023/01/29 03:15:35;;;;;;;;;;;;;;;;;;;;;
2023/01/29 03:18:42;;;;;;;25.20;19.90;;;;;;;-0.48;64.33;101354.92;110069;1254;22008;-81
2023/01/29 03:22:00;;;;;;;23.70;19.90;;;;;;;-0.44;64.42;101357.43;110584;1255;21984;-81
2023/01/29 03:34:50;;;;;;;27.30;20.30;;;;;;;-0.30;64.75;101339.11;109963;1269;21966;-81
2023/01/29 03:37:46;;;;;;;25.50;19.30;;;;;;;-0.27;64.62;101338.31;110673;1261;22000;-80
2023/01/29 03:40:24;;;;;;;22.60;18.30;;;;;;;-0.26;64.61;101338.01;110713;1261;21988;-79
2023/01/29 03:43:13;;;;;;;21.10;17.70;;;;;;;-0.22;64.78;101330.20;110476;1261;22120;-79
2023/01/29 03:46:07;;;;;;;24.40;19.40;;;;;;;-0.24;64.69;101331.19;110462;1261;21974;-80
2023/01/29 03:49:13;;;;;;;23.90;20.80;;;;;;;-0.31;64.77;101337.04;110811;1259;24293;-79
2023/01/29 03:52:31;;;;;;;22.10;18.50;;;;;;;-0.37;64.71;101337.73;111143;1256;23740;-79
2023/01/29 03:55:53;;;;;;;21.10;18.10;;;;;;;-0.43;64.86;101337.79;110811;1259;21992;-79
2023/01/29 03:59:14;;;;;;;25.60;19.80;;;;;;;-0.48;65.05;101332.02;110818;1261;22308;-81
2023/01/29 04:02:45;;;;;;;;;;;;;;;;;;;;;
2023/01/29 04:05:36;;;;;;;;;;;;;;;;;;;;;
2023/01/29 04:08:34;;;;;;;19.20;15.40;;;;;;;-0.52;65.32;101319.79;110697;1261;21983;-82
2023/01/29 04:11:19;;;;;;;19.00;14.80;;;;;;;-0.48;65.45;101325.88;110769;1262;23625;-79
2023/01/29 04:14:05;;;;;;;16.70;13.30;;;;;;;-0.44;65.51;101324.07;110761;1261;21980;-80
2023/01/29 04:16:53;;;;;;;17.40;13.40;;;;;;;-0.40;65.48;101315.60;110807;1262;24157;-79
2023/01/29 04:19:47;;;;;;;19.10;13.80;;;;;;;-0.40;65.37;101305.36;110725;1262;24542;-80
2023/01/29 04:22:44;;;;;;;18.10;13.70;;;;;;;-0.40;65.39;101294.58;110312;1262;22838;-79
2023/01/29 04:25:45;;;;;;;17.20;13.50;;;;;;;-0.41;65.45;101290.29;110882;1262;21988;-79
2023/01/29 04:28:51;;;;;;;18.30;13.80;;;;;;;-0.38;65.55;101291.52;110326;1266;21985;-78
2023/01/29 04:32:10;;;;;;;17.70;12.10;;;;;;;-0.38;65.55;101290.35;110075;1266;24468;-81
2023/01/29 04:35:00;;;;;;;18.80;12.70;;;;;;;-0.38;65.61;101290.69;109518;1269;23017;-81
2023/01/29 04:38:13;;;;;;;18.60;13.60;;;;;;;-0.36;65.71;101286.13;110242;1269;21988;-80
2023/01/29 04:41:16;;;;;;;15.60;12.00;;;;;;;-0.34;65.63;101291.64;109710;1269;22008;-81
2023/01/29 04:44:18;;;;;;;16.70;10.90;;;;;;;-0.37;65.47;101293.80;109988;1269;23033;-77
2023/01/29 04:47:21;;;;;;;;;;;;;;;;;;;;;
2023/01/29 04:51:00;;;;;;;15.00;11.20;;;;;;;-0.42;65.52;101282.40;109738;1272;24058;-80
2023/01/29 04:54:53;;;;;;;15.20;10.40;;;;;;;-0.45;65.49;101274.30;109075;1276;22000;-80
2023/01/29 04:57:54;;;;;;;13.80;10.60;;;;;;;-0.49;65.47;101270.44;108687;1285;22735;-80
2023/01/29 05:00:44;;;;;;;17.00;12.10;;;;;;;-0.50;65.44;101271.63;108331;1284;22037;-81
2023/01/29 05:03:57;;;;;;;19.40;13.40;;;;;;;-0.42;65.28;101273.85;108216;1286;544024;-78
2023/01/29 05:06:41;;;;;;;19.70;13.50;;;;;;;-0.48;65.30;101271.84;111038;1260;23024;-80
2023/01/29 05:09:20;;;;;;;16.90;11.70;;;;;;;-0.53;65.26;101268.48;111022;1260;21980;-80
2023/01/29 05:12:26;;;;;;;19.10;12.70;;;;;;;-0.60;65.21;101266.27;110845;1260;21967;-80
2023/01/29 05:15:34;;;;;;;15.80;12.30;;;;;;;-0.67;65.18;101268.83;111168;1257;23732;-81
2023/01/29 05:18:23;;;;;;;17.00;11.80;;;;;;;-0.73;65.17;101267.67;109972;1254;1920213;-81
2023/01/29 05:21:07;;;;;;;16.60;12.10;;;;;;;-0.77;65.09;101265.02;111375;1254;21959;-79
2023/01/29 05:24:25;;;;;;;18.10;12.20;;;;;;;-0.82;65.26;101265.06;111484;1254;21984;-80
2023/01/29 05:28:26;;;;;;;;;;;;;;;;;;;;;
2023/01/29 05:31:44;;;;;;;19.50;13.10;;;;;;;-0.85;65.47;101258.52;111429;1247;22065;-81
2023/01/29 05:34:34;;;;;;;21.40;13.00;;;;;;;-0.86;65.33;101258.83;111338;1254;21972;-80
2023/01/29 05:37:17;;;;;;;15.00;11.30;;;;;;;-0.88;65.28;101258.28;111455;1255;21980;-81
2023/01/29 05:40:05;;;;;;;17.20;12.20;;;;;;;-0.91;65.33;101260.95;111453;1254;23597;-80
2023/01/29 05:42:49;;;;;;;18.20;12.60;;;;;;;-0.92;65.21;101257.33;111427;1254;22051;-79
2023/01/29 05:46:00;;;;;;;16.10;12.10;;;;;;;-0.96;65.13;101246.98;111242;1254;21984;-81
2023/01/29 05:49:06;;;;;;;19.10;13.80;;;;;;;-0.99;65.06;101246.39;111539;1253;23010;-81
2023/01/29 05:51:46;;;;;;;14.30;10.70;;;;;;;-1.03;65.09;101244.60;111496;1254;21982;-81
2023/01/29 05:54:28;;;;;;;16.90;12.00;;;;;;;-1.03;65.18;101248.69;110999;1259;21959;-80
2023/01/29 05:57:21;;;;;;;23.00;12.60;;;;;;;-1.03;65.08;101256.89;110993;1259;21968;-80
2023/01/29 06:00:22;;;;;;;16.70;12.10;;;;;;;-1.05;65.00;101252.23;111044;1259;21980;-81
2023/01/29 06:03:22;;;;;;;19.80;12.40;;;;;;;-1.06;65.16;101242.63;110930;1259;23049;-80
2023/01/29 06:06:21;;;;;;;25.60;12.20;;;;;;;-1.07;65.19;101246.03;111064;1259;23607;-78
2023/01/29 06:09:45;;;;;;;14.00;11.20;;;;;;;-1.12;65.11;101240.60;110296;1265;21982;-78
2023/01/29 06:12:52;;;;;;;16.60;11.40;;;;;;;-1.17;65.26;101242.02;110576;1259;22084;-79
2023/01/29 06:15:46;;;;;;;18.00;10.30;;;;;;;-1.17;65.32;101239.98;110640;1260;21968;-82
2023/01/29 06:18:55;;;;;;;;;;;;;;;;;;;;;
2023/01/29 06:21:44;;;;;;;14.10;10.80;;;;;;;-1.14;65.32;101239.53;110103;1254;21993;-79
2023/01/29 06:24:31;;;;;;;19.10;11.50;;;;;;;-1.09;65.27;101241.20;110118;1266;22002;-82
2023/01/29 06:30:54;;;;;;;14.70;11.20;;;;;;;-1.01;65.31;101235.91;110259;1265;22007;-79
2023/01/29 06:34:43;;;;;;;14.90;11.30;;;;;;;-0.98;65.25;101237.70;110616;1264;21978;-80
2023/01/29 06:37:46;;;;;;;11.60;9.40;;;;;;;-0.92;65.19;101244.34;110751;1260;21977;-80
2023/01/29 06:41:49;;;;;;;18.00;10.90;;;;;;;-0.88;65.22;101251.27;110914;1260;21973;-79
2023/01/29 06:45:04;;;;;;;18.20;11.80;;;;;;;-0.84;65.08;101257.68;109989;1266;22250;-79
2023/01/29 06:47:52;;;;;;;14.90;10.20;;;;;;;-0.82;65.02;101257.56;110096;1265;22784;-80
2023/01/29 06:51:38;;;;;;;16.50;12.40;;;;;;;-0.79;64.98;101263.09;110233;1264;22138;-79
2023/01/29 06:54:46;;;;;;;;;;;;;;;-0.80;64.87;101267.19;109428;1273;21969;-79
2023/01/29 06:57:44;;;;;;;17.70;11.40;;;;;;;-0.83;65.00;101266.42;108963;1278;22064;-80
2023/01/29 07:00:17;;;;;;;;;;;;;;;-0.80;64.98;101272.47;108842;1278;21982;-81
2023/01/29 07:02:55;;;;;;;13.00;10.30;;;;;;;-0.82;65.02;101287.64;109032;1278;22368;-80
2023/01/29 07:05:36;;;;;;;12.30;9.00;;;;;;;-0.77;65.06;101292.88;109086;1278;21859;-80
2023/01/29 07:08:09;;;;;;;15.90;10.60;;;;;;;-0.71;64.94;101293.35;109209;1278;21996;-81
2023/01/29 07:11:02;;;;;;;12.70;9.30;;;;;;;-0.68;64.68;101294.11;109119;1276;23656;-80
2023/01/29 07:13:31;;;;;;;14.30;10.20;;;;;;;-0.69;64.56;101292.56;108618;1281;23018;-80
2023/01/29 07:16:13;;;;;;;13.00;9.60;;;;;;;-0.69;64.54;101286.08;108928;1273;21984;-79
2023/01/29 07:19:04;;;;;;;14.40;10.50;;;;;;;-0.69;64.39;101280.41;109052;1276;22050;-84
2023/01/29 07:21:39;;;;;;;;;;;;;;;-0.70;64.34;101281.23;109302;1272;23604;-76
2023/01/29 07:24:09;;;;;;;15.10;12.10;;;;;;;-0.74;64.56;101288.33;109141;1272;21979;-81
2023/01/29 07:26:41;;;;;;;15.30;12.20;;;;;;;-0.68;64.62;101293.10;109576;1271;23352;-80
2023/01/29 07:29:11;;;;;;;13.10;11.60;;;;;;;-0.58;64.53;101285.95;109383;1272;23034;-81
2023/01/29 07:31:42;;;;;;;17.60;13.70;;;;;;;-0.48;64.62;101286.54;110294;1258;22451;-81
2023/01/29 07:34:14;;;;;;;17.70;14.40;;;;;;;-0.36;64.59;101285.77;110997;1254;23040;-81
2023/01/29 07:36:46;;;;;;;18.90;13.70;;;;;;;-0.25;64.58;101282.75;110612;1263;23589;-80
2023/01/29 07:39:15;;;;;;;14.10;12.00;;;;;;;-0.16;64.38;101279.20;110340;1264;22300;-81
2023/01/29 07:41:45;;;;;;;19.50;13.40;;;;;;;-0.08;64.31;101278.34;110348;1264;21976;-81
2023/01/29 07:44:17;;;;;;;22.40;14.00;;;;;;;-0.03;64.05;101272.43;110741;1260;23717;-82
2023/01/29 07:46:47;;;;;;;20.80;13.10;;;;;;;-0.00;63.90;101260.35;110735;1260;22955;-81
2023/01/29 07:49:17;;;;;;;16.20;12.60;;;;;;;0.04;64.02;101253.75;111015;1259;23761;-81
2023/01/29 07:51:51;;;;;;;19.90;15.30;;;;;;;0.08;63.93;101241.16;110915;1259;23610;-81
2023/01/29 07:54:27;;;;;;;15.50;13.30;;;;;;;0.08;63.54;101232.77;111091;1255;22101;-83
2023/01/29 07:56:57;;;;;;;16.70;12.80;;;;;;;0.07;63.74;101226.95;111146;1258;23132;-79
2023/01/29 07:59:31;;;;;;;16.10;13.20;;;;;;;0.14;63.94;101223.84;110762;1258;23055;-79
2023/01/29 08:02:03;;;;;;;15.20;13.10;;;;;;;0.17;63.59;101224.23;110863;1258;22106;-79
2023/01/29 08:04:39;;;;;;;20.50;15.30;;;;;;;0.13;63.48;101227.40;110441;1263;21991;-79
2023/01/29 08:07:12;;;;;;;19.10;16.40;;;;;;;0.15;63.59;101232.56;110151;1267;21971;-79
2023/01/29 08:09:45;;;;;;;17.90;15.90;;;;;;;0.19;63.51;101236.06;110232;1267;21983;-80
2023/01/29 08:12:21;;;;;;;18.40;13.60;;;;;;;0.23;63.39;101234.08;110343;1266;21997;-79
2023/01/29 08:14:57;;;;;;;17.60;15.30;;;;;;;0.27;63.40;101231.23;110381;1263;21991;-79
2023/01/29 08:17:27;;;;;;;17.60;15.70;;;;;;;0.32;63.37;101225.86;110493;1263;21977;-79
2023/01/29 08:20:01;;;;;;;21.80;15.90;;;;;;;0.38;63.33;101224.09;110631;1263;22961;-80
2023/01/29 08:22:41;;;;;;;20.50;14.20;;;;;;;0.42;63.21;101223.30;110629;1259;22118;-82
2023/01/29 08:25:12;;;;;;;21.70;17.10;;;;;;;0.41;62.97;101223.13;111225;1255;23033;-80
2023/01/29 08:28:13;;;;;;;18.80;15.70;;;;;;;0.37;62.95;101228.01;111220;1250;21960;-80
2023/01/29 08:30:55;;;;;;;17.80;13.70;;;;;;;0.30;63.15;101231.64;111563;1254;23020;-80
2023/01/29 08:33:28;;;;;;;23.20;20.80;;;;;;;0.31;63.43;101230.64;111430;1248;23064;-79
2023/01/29 08:36:12;;;;;;;29.50;26.60;;;;;;;0.33;63.43;101226.05;111319;1254;23612;-80
2023/01/29 08:38:42;;;;;;;;;;;;;;;0.33;63.35;101222.13;111722;1251;23579;-79
2023/01/29 08:41:17;;;;;;;25.20;19.70;;;;;;;0.24;63.51;101218.52;111526;1254;23615;-80
2023/01/29 08:43:48;;;;;;;28.10;22.00;;;;;;;0.29;63.74;101216.39;111597;1254;22042;-79
2023/01/29 08:46:18;;;;;;;28.20;21.20;;;;;;;0.36;63.90;101214.98;111457;1254;23687;-81
2023/01/29 08:48:55;;;;;;;27.00;20.30;;;;;;;0.44;63.80;101213.05;111489;1254;21954;-80
2023/01/29 08:51:34;;;;;;;24.50;18.10;;;;;;;0.49;63.70;101213.32;111617;1254;23092;-79
2023/01/29 08:54:15;;;;;;;24.80;18.60;;;;;;;0.52;63.61;101212.35;110998;1259;21999;-81
2023/01/29 08:57:11;;;;;;;;;;;;;;;;;;;;;
2023/01/29 08:59:48;;;;;;;25.50;19.30;;;;;;;0.54;63.78;101217.67;110647;1259;22009;-79
2023/01/29 09:02:20;;;;;;;;;;;;;;;0.53;63.63;101216.64;111044;1259;22887;-79
2023/01/29 09:04:57;;;;;;;27.10;21.70;;;;;;;0.44;63.70;101218.20;110869;1254;21952;-79
2023/01/29 09:07:32;;;;;;;29.60;23.50;;;;;;;0.37;63.68;101221.16;110834;1258;22210;-78
2023/01/29 09:10:13;;;;;;;28.40;22.50;;;;;;;0.35;63.80;101218.58;110783;1259;21976;-79
2023/01/29 09:12:48;;;;;;;28.10;22.20;;;;;;;0.37;63.90;101215.34;111117;1244;23090;-79
2023/01/29 09:15:23;;;;;;;34.20;25.80;;;;;;;0.37;63.89;101205.57;110706;1260;21978;-79
2023/01/29 09:17:56;;;;;;;49.40;34.50;;;;;;;0.39;64.04;101202.20;110553;1260;21978;-79
2023/01/29 09:20:26;;;;;;;53.80;39.40;;;;;;;0.45;64.23;101198.70;110741;1256;21982;-79
2023/01/29 09:23:10;;;;;;;41.00;29.90;;;;;;;0.52;64.30;101194.87;110863;1260;23038;-79
2023/01/29 09:25:42;;;;;;;24.80;21.10;;;;;;;0.57;64.30;101190.17;110887;1260;22056;-79
2023/01/29 09:28:17;;;;;;;25.60;21.70;;;;;;;0.54;64.06;101191.65;110511;1263;24295;-79
2023/01/29 09:31:13;;;;;;;27.60;19.00;;;;;;;0.58;64.48;101192.23;110320;1266;23015;-79
2023/01/29 09:33:46;;;;;;;24.00;19.10;;;;;;;0.68;64.49;101184.52;110538;1259;21999;-78
2023/01/29 09:36:15;;;;;;;29.20;21.30;;;;;;;0.76;64.51;101178.48;110766;1259;21979;-78
2023/01/29 09:38:47;;;;;;;25.40;19.20;;;;;;;0.81;64.32;101182.48;110906;1250;22448;-79
2023/01/29 09:41:43;;;;;;;30.30;19.30;;;;;;;0.81;64.14;101178.55;110912;1259;21986;-77
2023/01/29 09:45:14;;;;;;;26.00;18.60;;;;;;;0.80;64.13;101174.94;110878;1259;23710;-78
2023/01/29 09:47:51;;;;;;;29.70;21.40;;;;;;;0.79;64.19;101169.79;110860;1259;21996;-78
2023/01/29 09:50:44;;;;;;;26.00;22.20;;;;;;;0.85;64.27;101167.14;110740;1259;21987;-78
2023/01/29 09:53:34;;;;;;;23.50;20.50;;;;;;;0.88;63.96;101160.66;110852;1257;23714;-78
2023/01/29 09:56:19;;;;;;;36.10;28.40;;;;;;;0.88;64.06;101156.54;110828;1260;23616;-78
2023/01/29 09:58:51;;;;;;;28.70;22.40;;;;;;;0.93;64.20;101155.42;110576;1260;22442;-79
2023/01/29 10:02:05;;;;;;;30.20;25.70;;;;;;;1.02;64.24;101157.42;110709;1260;21967;-79
2023/01/29 10:04:50;;;;;;;31.70;24.60;;;;;;;1.03;63.96;101154.70;110072;1259;23052;-78
2023/01/29 10:08:30;;;;;;;28.00;21.50;;;;;;;1.04;64.05;101147.17;110452;1263;21983;-78
2023/01/29 10:11:36;;;;;;;26.90;22.80;;;;;;;1.06;64.18;101153.21;109758;1269;23626;-79
2023/01/29 10:14:13;;;;;;;31.30;25.30;;;;;;;1.07;64.08;101156.63;109993;1268;21968;-79
2023/01/29 10:17:15;;;;;;;30.60;24.80;;;;;;;1.07;64.16;101154.77;109983;1269;21987;-78
2023/01/29 10:20:11;;;;;;;31.90;25.20;;;;;;;1.08;64.09;101150.49;109662;1273;22050;-79
2023/01/29 10:23:01;;;;;;;36.00;29.60;;;;;;;1.09;64.21;101151.88;109518;1270;21976;-79
2023/01/29 10:25:35;;;;;;;41.00;33.70;;;;;;;1.12;64.33;101156.37;109565;1273;22830;-77
2023/01/29 10:28:29;;;;;;;42.80;31.70;;;;;;;1.16;64.39;101151.62;109455;1273;23821;-78
2023/01/29 10:31:23;;;;;;;30.40;25.00;;;;;;;1.15;64.25;101151.45;109382;1272;21987;-78
2023/01/29 10:34:08;;;;;;;26.80;22.00;;;;;;;1.08;64.26;101142.95;109127;1274;21986;-78
2023/01/29 10:37:42;;;;;;;27.30;24.10;;;;;;;1.01;64.42;101142.85;109046;1274;21996;-79
2023/01/29 10:40:45;;;;;;;33.10;23.90;;;;;;;1.01;64.59;101140.27;108837;1277;22126;-78
2023/01/29 10:43:49;;;;;;;30.40;22.00;;;;;;;0.97;64.64;101135.26;109292;1273;22163;-78
2023/01/29 10:46:41;;;;;;;35.50;28.80;;;;;;;0.96;64.87;101125.83;109664;1266;22003;-78
2023/01/29 10:49:28;;;;;;;37.10;30.10;;;;;;;0.98;65.02;101119.33;110089;1267;23627;-79
2023/01/29 10:52:28;;;;;;;30.70;27.20;;;;;;;1.01;65.22;101124.16;109980;1266;21992;-78
2023/01/29 10:55:21;;;;;;;36.00;27.20;;;;;;;1.02;65.31;101128.46;109660;1270;23746;-79
2023/01/29 10:58:46;;;;;;;35.30;26.70;;;;;;;1.06;65.47;101129.88;110425;1260;23624;-78
2023/01/29 11:01:20;;;;;;;31.00;25.50;;;;;;;1.06;65.41;101127.67;110737;1260;23043;-79
2023/01/29 11:04:07;;;;;;;31.80;25.30;;;;;;;1.08;65.46;101127.02;110866;1260;21987;-77
2023/01/29 11:06:48;;;;;;;27.70;24.60;;;;;;;1.06;65.36;101122.86;110534;1261;22969;-79
2023/01/29 11:09:56;;;;;;;31.90;25.90;;;;;;;1.06;65.61;101121.34;110690;1261;22067;-78
2023/01/29 11:12:38;;;;;;;39.10;28.40;;;;;;;1.09;65.73;101110.91;109492;1266;23610;-78
2023/01/29 11:15:21;;;;;;;33.50;28.90;;;;;;;1.07;65.65;101107.45;109382;1272;21980;-79
2023/01/29 11:18:14;;;;;;;35.30;27.60;;;;;;;1.09;65.89;101103.89;109540;1271;21984;-78
2023/01/29 11:20:58;;;;;;;34.60;28.60;;;;;;;1.13;66.08;101097.94;109622;1269;21984;-81
2023/01/29 11:23:32;;;;;;;36.40;28.90;;;;;;;1.13;65.95;101093.99;109899;1270;24424;-79
2023/01/29 11:26:09;;;;;;;35.80;28.00;;;;;;;1.13;66.11;101090.21;109564;1272;22002;-80
2023/01/29 11:28:42;;;;;;;35.90;30.90;;;;;;;1.12;66.09;101080.60;109639;1272;21992;-83
2023/01/29 11:31:38;;;;;;;76.70;65.60;;;;;;;1.11;66.16;101073.22;110142;1265;21999;-82
2023/01/29 11:34:32;;;;;;;41.90;33.20;;;;;;;1.13;66.33;101071.19;109893;1270;22737;-81
2023/01/29 11:37:16;;;;;;;46.30;37.80;;;;;;;1.10;66.23;101062.39;109943;1269;22012;-80
2023/01/29 11:40:00;;;;;;;37.70;27.60;;;;;;;1.06;66.33;101056.87;109667;1270;22008;-80
2023/01/29 11:42:33;;;;;;;39.90;34.50;;;;;;;1.01;66.32;101048.41;109752;1270;21990;-81
2023/01/29 11:45:33;;;;;;;51.40;38.60;;;;;;;1.00;66.41;101039.14;109465;1274;22063;-81
2023/01/29 11:48:23;;;;;;;47.90;37.00;;;;;;;0.98;66.66;101033.63;109330;1274;22027;-81
2023/01/29 11:51:01;;;;;;;37.40;28.80;;;;;;;1.02;66.78;101025.29;109955;1269;22006;-81
2023/01/29 11:53:50;;;;;;;39.20;34.30;;;;;;;1.05;66.71;101024.29;109937;1270;22056;-80
2023/01/29 11:56:34;;;;;;;36.30;26.40;;;;;;;1.04;66.82;101022.89;109698;1270;22019;-80
2023/01/29 11:59:22;;;;;;;34.20;28.50;;;;;;;1.04;66.87;101017.41;109804;1270;22013;-80
2023/01/29 12:02:18;;;;;;;30.80;27.50;;;;;;;0.98;66.84;101011.52;110070;1262;22291;-80
2023/01/29 12:04:56;;;;;;;35.20;27.40;;;;;;;0.96;66.92;101005.67;110668;1263;21966;-82
2023/01/29 12:07:27;;;;;;;32.70;28.10;;;;;;;1.01;67.10;101006.23;110477;1263;23055;-81
2023/01/29 12:10:05;;;;;;;35.30;28.60;;;;;;;1.01;67.04;101000.77;110945;1263;21980;-80
2023/01/29 12:12:42;;;;;;;34.40;28.40;;;;;;;1.02;67.09;101000.26;111105;1256;24301;-82
2023/01/29 12:15:24;;;;;;;35.60;29.40;;;;;;;1.04;67.25;100993.42;110949;1261;23615;-82
2023/01/29 12:18:35;;;;;;;34.50;29.80;;;;;;;1.09;67.40;100993.64;110985;1261;22517;-81
2023/01/29 12:21:59;;;;;;;39.40;29.30;;;;;;;1.10;67.30;100993.32;110902;1261;24360;-81
2023/01/29 12:25:19;;;;;;;42.50;33.20;;;;;;;1.07;67.34;100993.45;110665;1261;23030;-79
2023/01/29 12:28:21;;;;;;;31.80;28.30;;;;;;;1.02;67.38;100991.35;110453;1263;23779;-81
2023/01/29 12:31:14;;;;;;;32.20;28.00;;;;;;;1.00;67.42;100987.90;110383;1265;21975;-80
2023/01/29 12:34:15;;;;;;;31.00;26.10;;;;;;;1.01;67.57;100991.33;110494;1260;22026;-80
2023/01/29 12:37:36;;;;;;;45.00;33.70;;;;;;;1.02;67.64;100988.60;110951;1255;23724;-80
2023/01/29 12:40:16;;;;;;;39.30;30.60;;;;;;;1.06;67.67;100974.41;111031;1260;23106;-80
2023/01/29 12:42:54;;;;;;;39.70;35.40;;;;;;;1.12;67.69;100963.16;110972;1260;23116;-80
2023/01/29 12:45:40;;;;;;;43.40;36.40;;;;;;;1.19;67.54;100961.70;111013;1259;23020;-81
2023/01/29 12:48:32;;;;;;;36.20;31.70;;;;;;;1.24;67.27;100958.67;110260;1265;21987;-81
2023/01/29 12:51:23;;;;;;;39.50;35.30;;;;;;;1.25;67.27;100961.42;109842;1265;24319;-79
2023/01/29 12:54:06;;;;;;;37.10;31.20;;;;;;;1.29;67.28;100961.30;109861;1265;21955;-79
2023/01/29 12:56:45;;;;;;;33.80;27.60;;;;;;;1.32;67.15;100957.72;110102;1265;22139;-79
2023/01/29 12:59:41;;;;;;;30.80;26.90;;;;;;;1.31;66.97;100959.92;109963;1265;21978;-78
2023/01/29 13:02:45;;;;;;;40.30;34.60;;;;;;;1.31;67.05;100950.50;109883;1265;22196;-79
2023/01/29 13:05:24;;;;;;;34.70;28.30;;;;;;;1.33;67.02;100956.35;110556;1263;23055;-78
2023/01/29 13:08:15;;;;;;;30.20;25.90;;;;;;;1.34;66.93;100952.42;111131;1256;23710;-77
2023/01/29 13:10:55;;;;;;;27.90;23.30;;;;;;;1.32;66.93;100944.17;111040;1256;21965;-78
2023/01/29 13:14:27;;;;;;;28.80;25.50;;;;;;;1.34;67.00;100938.35;111302;1256;23609;-78
2023/01/29 13:17:20;;;;;;;34.40;25.40;;;;;;;1.39;67.06;100935.14;110817;1258;21988;-78
2023/01/29 13:20:00;;;;;;;38.20;31.90;;;;;;;1.43;66.83;100934.33;110199;1267;21984;-77
2023/01/29 13:22:37;;;;;;;112.30;73.00;;;;;;;1.44;66.80;100926.96;110250;1264;23748;-78
2023/01/29 13:25:19;;;;;;;113.20;80.10;;;;;;;1.44;66.73;100926.96;110254;1266;22981;-79
2023/01/29 13:27:54;;;;;;;64.20;49.60;;;;;;;1.42;66.67;100921.96;109580;1269;23732;-79
2023/01/29 13:30:29;;;;;;;38.10;29.60;;;;;;;1.41;66.58;100920.23;109622;1269;21993;-79
2023/01/29 13:33:09;;;;;;;49.80;44.50;;;;;;;1.36;66.51;100919.52;109485;1269;21987;-78
2023/01/29 13:35:44;;;;;;;42.70;38.00;;;;;;;1.35;66.56;100921.39;109581;1271;22034;-79
2023/01/29 13:38:32;;;;;;;41.40;35.10;;;;;;;1.37;66.55;100926.21;109917;1265;21974;-79
2023/01/29 13:41:07;;;;;;;42.60;32.20;;;;;;;1.38;66.69;100929.82;109734;1266;21987;-78
2023/01/29 13:43:41;;;;;;;29.10;24.90;;;;;;;1.39;66.58;100932.74;110023;1267;22009;-77
2023/01/29 13:46:20;;;;;;;41.60;33.00;;;;;;;1.36;66.61;100931.86;110426;1261;21965;-77